createdAt,value
2022-10-17T00:00:43.111Z,1.30
2022-10-17T00:03:10.740Z,1.40
2022-10-17T00:05:42.399Z,1.00
2022-10-17T00:08:10.600Z,1.20
2022-10-17T00:10:38.205Z,1.40
2022-10-17T00:13:05.672Z,1.27
2022-10-17T00:15:33.240Z,1.40
2022-10-17T00:18:00.848Z,1.43
2022-10-17T00:20:30.308Z,1.77
2022-10-17T00:22:57.904Z,1.17
2022-10-17T00:25:25.207Z,1.87
2022-10-17T00:27:52.494Z,1.40
2022-10-17T00:30:19.822Z,1.63
2022-10-17T00:32:47.172Z,1.30
2022-10-17T00:35:14.482Z,1.73
2022-10-17T00:37:42.384Z,1.37
2022-10-17T00:40:10.065Z,1.30
2022-10-17T00:42:37.432Z,1.50
2022-10-17T00:45:04.734Z,1.93
2022-10-17T00:47:32.674Z,1.30
2022-10-17T00:52:32.874Z,1.30
2022-10-17T00:55:23.269Z,1.53
2022-10-17T00:57:51.297Z,1.30
2022-10-17T01:00:19.766Z,1.50
2022-10-17T01:02:47.109Z,1.40
2022-10-17T01:05:15.812Z,1.37
2022-10-17T01:07:43.591Z,1.33
2022-10-17T01:10:11.639Z,1.40
2022-10-17T01:12:39.220Z,1.30
2022-10-17T01:15:13.181Z,1.50
2022-10-17T01:17:43.534Z,1.20
2022-10-17T01:20:11.014Z,1.67
2022-10-17T01:22:58.562Z,1.60
2022-10-17T01:25:30.357Z,1.60
2022-10-17T01:28:05.082Z,1.60
2022-10-17T01:30:44.768Z,1.57
2022-10-17T01:33:39.172Z,1.57
2022-10-17T01:36:16.207Z,1.30
2022-10-17T01:38:53.862Z,1.70
2022-10-17T01:41:39.578Z,1.50
2022-10-17T01:44:13.880Z,1.50
2022-10-17T01:46:44.287Z,1.50
2022-10-17T01:49:13.793Z,2.07
2022-10-17T01:51:47.155Z,1.57
2022-10-17T01:54:22.141Z,1.60
2022-10-17T01:56:52.386Z,1.83
2022-10-17T01:59:24.384Z,1.43
2022-10-17T02:01:53.171Z,1.57
2022-10-17T02:04:20.749Z,2.07
2022-10-17T02:06:48.032Z,1.60
2022-10-17T02:09:23.609Z,2.10
2022-10-17T02:12:02.099Z,1.67
2022-10-17T02:14:35.554Z,1.60
2022-10-17T02:17:14.285Z,1.90
2022-10-17T02:19:51.605Z,1.60
2022-10-17T02:22:18.885Z,1.70
2022-10-17T02:24:49.205Z,1.77
2022-10-17T02:27:35.419Z,2.20
2022-10-17T02:30:08.854Z,1.60
2022-10-17T02:32:50.707Z,1.37
2022-10-17T02:35:22.148Z,1.50
2022-10-17T02:37:49.823Z,1.40
2022-10-17T02:40:19.534Z,1.70
2022-10-17T02:42:47.129Z,1.80
2022-10-17T02:45:16.243Z,1.67
2022-10-17T02:47:55.609Z,1.80
2022-10-17T02:50:26.519Z,1.47
2022-10-17T02:52:56.695Z,2.00
2022-10-17T02:55:26.587Z,1.60
2022-10-17T02:57:55.455Z,1.77
2022-10-17T03:00:23.272Z,1.80
2022-10-17T03:02:52.171Z,1.63
2022-10-17T03:05:21.263Z,2.00
2022-10-17T03:07:48.550Z,2.00
2022-10-17T03:10:16.110Z,2.00
2022-10-17T03:12:43.454Z,1.90
2022-10-17T03:15:11.771Z,1.80
2022-10-17T03:17:39.162Z,2.40
2022-10-17T03:20:08.546Z,2.10
2022-10-17T03:22:35.858Z,2.07
2022-10-17T03:25:04.876Z,1.80
2022-10-17T03:27:35.083Z,1.70
2022-10-17T03:30:02.387Z,1.60
2022-10-17T03:32:33.583Z,1.70
2022-10-17T03:35:00.923Z,2.30
2022-10-17T03:37:28.640Z,2.10
2022-10-17T03:39:56.191Z,1.93
2022-10-17T03:42:24.062Z,2.00
2022-10-17T03:44:51.316Z,2.10
2022-10-17T03:47:18.637Z,1.67
2022-10-17T03:49:46.714Z,1.73
2022-10-17T03:52:15.311Z,2.23
2022-10-17T03:54:42.884Z,1.70
2022-10-17T03:57:10.180Z,2.10
2022-10-17T03:59:37.454Z,1.90
2022-10-17T04:02:13.620Z,1.90
2022-10-17T04:04:40.979Z,2.20
2022-10-17T04:07:08.277Z,2.00
2022-10-17T04:09:39.170Z,2.00
2022-10-17T04:12:13.478Z,1.80
2022-10-17T04:14:41.104Z,2.07
2022-10-17T04:17:08.957Z,2.20
2022-10-17T04:19:37.198Z,1.60
2022-10-17T04:22:04.491Z,2.00
2022-10-17T04:24:35.163Z,1.83
2022-10-17T04:27:10.616Z,1.57
2022-10-17T04:29:41.821Z,1.97
2022-10-17T04:32:17.406Z,1.80
2022-10-17T04:34:52.756Z,1.50
2022-10-17T04:37:22.478Z,2.50
2022-10-17T04:39:51.972Z,2.10
2022-10-17T04:42:19.265Z,2.10
2022-10-17T04:44:47.160Z,1.90
2022-10-17T04:47:17.003Z,2.03
2022-10-17T04:49:44.868Z,1.97
2022-10-17T04:52:14.199Z,1.70
2022-10-17T04:54:44.115Z,1.60
2022-10-17T04:57:13.852Z,2.13
2022-10-17T04:59:43.083Z,1.50
2022-10-17T05:02:20.807Z,1.80
2022-10-17T05:04:48.337Z,2.10
2022-10-17T05:07:16.593Z,1.97
2022-10-17T05:10:02.825Z,1.73
2022-10-17T05:12:32.016Z,1.60
2022-10-17T05:14:59.466Z,2.20
2022-10-17T05:17:28.643Z,2.00
2022-10-17T05:19:55.925Z,2.40
2022-10-17T05:22:23.513Z,1.80
2022-10-17T05:24:51.014Z,1.80
2022-10-17T05:27:19.041Z,1.80
2022-10-17T05:29:46.460Z,2.30
2022-10-17T05:32:20.453Z,2.03
2022-10-17T05:34:48.603Z,1.90
2022-10-17T05:37:16.014Z,2.10
2022-10-17T05:39:50.700Z,2.00
2022-10-17T05:42:19.850Z,1.80
2022-10-17T05:44:47.996Z,2.13
2022-10-17T05:47:17.206Z,2.03
2022-10-17T05:49:50.012Z,2.13
2022-10-17T05:52:20.377Z,2.13
2022-10-17T05:55:01.644Z,1.97
2022-10-17T05:57:29.015Z,1.97
2022-10-17T05:59:57.479Z,1.87
2022-10-17T06:02:24.931Z,2.00
2022-10-17T06:04:52.317Z,1.57
2022-10-17T06:07:21.850Z,1.63
2022-10-17T06:09:49.766Z,1.73
2022-10-17T06:12:17.070Z,1.90
2022-10-17T06:14:45.591Z,2.17
2022-10-17T06:17:16.257Z,2.00
2022-10-17T06:19:44.962Z,2.27
2022-10-17T06:22:14.493Z,2.40
2022-10-17T06:24:42.553Z,2.33
2022-10-17T06:27:11.956Z,2.10
2022-10-17T06:29:41.256Z,1.77
2022-10-17T06:32:11.242Z,1.73
2022-10-17T06:34:42.080Z,2.13
2022-10-17T06:37:10.174Z,2.33
2022-10-17T06:39:39.650Z,2.30
2022-10-17T06:42:12.120Z,1.87
2022-10-17T06:44:55.413Z,2.23
2022-10-17T06:47:37.858Z,2.07
2022-10-17T06:50:23.666Z,2.43
2022-10-17T06:53:03.298Z,1.77
2022-10-17T06:55:55.252Z,2.20
2022-10-17T06:58:39.627Z,2.47
2022-10-17T07:01:14.118Z,2.00
2022-10-17T07:03:43.550Z,1.83
2022-10-17T07:06:11.830Z,1.90
2022-10-17T07:08:44.946Z,2.23
2022-10-17T07:11:19.339Z,2.23
2022-10-17T07:13:48.799Z,2.10
2022-10-17T07:16:16.600Z,2.90
2022-10-17T07:18:49.345Z,1.73
2022-10-17T07:21:18.169Z,2.10
2022-10-17T07:23:45.577Z,2.20
2022-10-17T07:26:14.648Z,1.60
2022-10-17T07:28:44.131Z,1.97
2022-10-17T07:31:28.239Z,1.87
2022-10-17T07:33:55.539Z,2.10
2022-10-17T07:36:22.864Z,1.97
2022-10-17T07:38:50.490Z,2.00
2022-10-17T07:41:21.750Z,1.90
2022-10-17T07:43:50.057Z,2.10
2022-10-17T07:46:21.307Z,2.47
2022-10-17T07:48:48.761Z,2.07
2022-10-17T07:51:17.680Z,1.70
2022-10-17T07:53:48.714Z,1.50
2022-10-17T07:56:16.320Z,2.00
2022-10-17T07:58:43.776Z,2.00
2022-10-17T08:01:15.538Z,1.97
2022-10-17T08:03:46.715Z,1.70
2022-10-17T08:06:14.082Z,2.20
2022-10-17T08:08:41.563Z,1.93
2022-10-17T08:11:09.821Z,2.13
2022-10-17T08:13:37.737Z,2.17
2022-10-17T08:16:07.470Z,1.90
2022-10-17T08:18:35.459Z,2.17
2022-10-17T08:21:06.124Z,1.83
2022-10-17T08:23:33.505Z,1.77
2022-10-17T08:26:01.577Z,2.10
2022-10-17T08:28:29.279Z,2.07
2022-10-17T08:31:12.906Z,2.03
2022-10-17T08:33:40.202Z,1.90
2022-10-17T08:36:07.893Z,2.13
2022-10-17T08:38:36.816Z,1.80
2022-10-17T08:41:06.167Z,1.90
2022-10-17T08:43:45.631Z,2.17
2022-10-17T08:46:13.227Z,2.03
2022-10-17T08:48:45.601Z,1.80
2022-10-17T08:51:20.287Z,1.93
2022-10-17T08:53:56.288Z,2.00
2022-10-17T08:56:47.612Z,2.20
2022-10-17T08:59:20.894Z,1.83
2022-10-17T09:01:54.803Z,2.00
2022-10-17T09:04:39.106Z,2.07
2022-10-17T09:07:18.475Z,1.73
2022-10-17T09:09:53.881Z,1.57
2022-10-17T09:12:44.392Z,1.90
2022-10-17T09:15:17.946Z,1.70
2022-10-17T09:17:52.677Z,1.80
2022-10-17T09:20:24.230Z,1.60
2022-10-17T09:23:00.071Z,2.10
2022-10-17T09:25:28.228Z,2.00
2022-10-17T09:28:00.096Z,1.67
2022-10-17T09:30:53.693Z,1.83
2022-10-17T09:33:34.765Z,1.60
2022-10-17T09:36:04.377Z,1.70
2022-10-17T09:38:39.636Z,1.90
2022-10-17T09:41:25.582Z,1.47
2022-10-17T09:43:59.000Z,1.53
2022-10-17T09:46:39.092Z,1.90
2022-10-17T09:49:17.884Z,1.50
2022-10-17T09:51:45.350Z,1.97
2022-10-17T09:54:18.744Z,1.60
2022-10-17T09:57:06.456Z,1.73
2022-10-17T09:59:36.206Z,1.53
2022-10-17T10:02:11.272Z,1.93
2022-10-17T10:05:03.652Z,1.70
2022-10-17T10:07:40.849Z,1.50
2022-10-17T10:10:09.556Z,1.50
2022-10-17T10:12:38.692Z,1.30
2022-10-17T10:15:29.464Z,1.33
2022-10-17T10:17:56.792Z,1.47
2022-10-17T10:20:29.752Z,1.13
2022-10-17T10:23:06.301Z,1.60
2022-10-17T10:25:33.774Z,1.10
2022-10-17T10:28:01.836Z,1.45
2022-10-17T10:30:32.808Z,1.20
2022-10-17T10:33:02.116Z,1.03
2022-10-17T10:35:34.573Z,1.13
2022-10-17T10:38:03.129Z,1.17
2022-10-17T10:40:35.043Z,1.30
2022-10-17T10:43:05.378Z,1.10
2022-10-17T10:45:54.361Z,1.10
2022-10-17T10:48:25.647Z,1.37
2022-10-17T10:51:15.202Z,1.20
2022-10-17T10:53:46.321Z,1.20
2022-10-17T10:56:19.600Z,1.17
2022-10-17T10:58:52.823Z,1.60
2022-10-17T11:01:27.794Z,1.33
2022-10-17T11:04:02.038Z,1.30
2022-10-17T11:06:31.030Z,1.23
2022-10-17T11:09:25.697Z,1.23
2022-10-17T11:12:07.723Z,1.20
2022-10-17T11:14:52.354Z,1.20
2022-10-17T11:17:29.273Z,1.13
2022-10-17T11:20:07.729Z,1.17
2022-10-17T11:22:39.415Z,1.40
2022-10-17T11:25:16.344Z,1.30
2022-10-17T11:27:43.703Z,1.17
2022-10-17T11:30:14.711Z,1.10
2022-10-17T11:32:46.868Z,0.97
2022-10-17T11:35:24.183Z,0.87
2022-10-17T11:37:56.072Z,1.20
2022-10-17T11:40:29.874Z,1.07
2022-10-17T11:42:57.127Z,1.08
2022-10-17T11:45:26.211Z,1.23
2022-10-17T11:48:01.464Z,0.90
2022-10-17T11:53:26.649Z,1.10
2022-10-17T11:55:55.588Z,1.20
2022-10-17T11:58:43.301Z,1.10
2022-10-17T12:01:16.318Z,1.20
2022-10-17T12:04:02.411Z,1.17
2022-10-17T12:06:48.343Z,1.13
2022-10-17T12:09:18.941Z,1.30
2022-10-17T12:11:53.749Z,1.00
2022-10-17T12:14:40.693Z,1.20
2022-10-17T12:17:23.121Z,1.17
2022-10-17T12:19:50.579Z,1.30
2022-10-17T12:22:26.211Z,1.30
2022-10-17T12:24:56.627Z,1.07
2022-10-17T12:27:38.287Z,1.10
2022-10-17T12:30:07.540Z,1.20
2022-10-17T12:32:53.396Z,1.00
2022-10-17T12:35:23.630Z,1.00
2022-10-17T12:37:57.390Z,1.10
2022-10-17T12:40:35.506Z,1.00
2022-10-17T12:43:03.794Z,1.10
2022-10-17T12:45:49.957Z,1.10
2022-10-17T12:48:35.507Z,1.13
2022-10-17T12:54:09.360Z,1.10
2022-10-17T12:56:40.730Z,1.47
2022-10-17T12:59:37.376Z,0.80
2022-10-17T13:02:04.863Z,1.17
2022-10-17T13:04:32.576Z,1.10
2022-10-17T13:07:01.351Z,1.20
2022-10-17T13:09:33.911Z,1.17
2022-10-17T13:12:02.323Z,1.23
2022-10-17T13:14:29.890Z,1.10
2022-10-17T13:16:58.830Z,1.30
2022-10-17T13:19:52.337Z,1.07
2022-10-17T13:22:28.104Z,1.30
2022-10-17T13:25:07.375Z,1.40
2022-10-17T13:27:35.618Z,1.13
2022-10-17T13:30:21.635Z,1.10
2022-10-17T13:32:48.942Z,0.93
2022-10-17T13:35:18.366Z,1.30
2022-10-17T13:37:53.000Z,1.00
2022-10-17T13:40:40.907Z,1.00
2022-10-17T13:43:18.188Z,1.10
2022-10-17T13:45:47.657Z,1.20
2022-10-17T13:48:22.702Z,1.20
2022-10-17T13:50:51.687Z,1.10
2022-10-17T13:53:21.828Z,1.10
2022-10-17T13:56:16.157Z,1.27
2022-10-17T13:58:49.104Z,1.00
2022-10-17T14:01:16.937Z,1.20
2022-10-17T14:03:49.755Z,1.23
2022-10-17T14:06:24.215Z,1.00
2022-10-17T14:08:57.864Z,1.00
2022-10-17T14:11:28.025Z,1.20
2022-10-17T14:13:56.710Z,1.10
2022-10-17T14:16:25.707Z,1.10
2022-10-17T14:18:53.818Z,1.10
2022-10-17T14:21:43.464Z,0.90
2022-10-17T14:24:23.968Z,0.93
2022-10-17T14:26:52.817Z,0.90
2022-10-17T14:29:23.929Z,0.90
2022-10-17T14:31:53.569Z,1.00
2022-10-17T14:34:22.666Z,0.93
2022-10-17T14:36:51.657Z,0.90
2022-10-17T14:39:20.384Z,1.07
2022-10-17T14:41:48.022Z,1.03
2022-10-17T14:44:32.582Z,1.10
2022-10-17T14:47:41.590Z,1.03
2022-10-17T14:50:21.010Z,1.10
2022-10-17T14:53:01.723Z,1.10
2022-10-17T14:55:29.804Z,1.10
2022-10-17T14:57:57.112Z,1.10
2022-10-17T15:00:24.886Z,1.10
2022-10-17T15:02:52.860Z,1.20
2022-10-17T15:05:20.966Z,1.20
2022-10-17T15:07:48.230Z,1.20
2022-10-17T15:10:24.039Z,1.37
2022-10-17T15:12:58.829Z,1.20
2022-10-17T15:15:32.629Z,1.20
2022-10-17T15:18:00.293Z,1.00
2022-10-17T15:20:30.254Z,1.10
2022-10-17T15:22:59.282Z,1.20
2022-10-17T15:25:27.290Z,1.20
2022-10-17T15:27:55.095Z,1.10
2022-10-17T15:30:23.892Z,1.20
2022-10-17T15:32:51.551Z,1.17
2022-10-17T15:35:19.286Z,1.00
2022-10-17T15:37:46.853Z,0.90
2022-10-17T15:40:15.570Z,1.30
2022-10-17T15:42:42.916Z,1.10
2022-10-17T15:45:15.872Z,1.10
2022-10-17T15:47:43.793Z,1.10
2022-10-17T15:50:14.154Z,1.00
2022-10-17T15:52:41.563Z,1.07
2022-10-17T15:55:09.562Z,0.87
2022-10-17T15:57:38.229Z,1.00
2022-10-17T16:00:07.030Z,1.40
2022-10-17T16:02:36.747Z,1.10
2022-10-17T16:05:09.977Z,1.13
2022-10-17T16:07:37.301Z,1.30
2022-10-17T16:10:04.750Z,1.10
2022-10-17T16:12:36.931Z,1.07
2022-10-17T16:15:04.273Z,1.27
2022-10-17T16:17:31.821Z,1.07
2022-10-17T16:19:59.396Z,1.37
2022-10-17T16:22:36.495Z,1.17
2022-10-17T16:25:10.072Z,1.10
2022-10-17T16:27:37.705Z,1.10
2022-10-17T16:30:05.864Z,1.30
2022-10-17T16:32:33.469Z,1.03
2022-10-17T16:35:01.478Z,1.10
2022-10-17T16:37:28.780Z,1.00
2022-10-17T16:39:56.090Z,1.27
2022-10-17T16:42:23.501Z,0.90
2022-10-17T16:44:51.091Z,1.00
2022-10-17T16:47:19.235Z,1.00
2022-10-17T16:49:46.580Z,1.20
2022-10-17T16:52:13.854Z,1.07
2022-10-17T16:54:41.155Z,1.60
2022-10-17T16:57:08.458Z,1.33
2022-10-17T16:59:35.736Z,1.23
2022-10-17T17:02:03.086Z,1.10
2022-10-17T17:04:30.413Z,1.47
2022-10-17T17:06:57.676Z,1.20
2022-10-17T17:09:25.053Z,1.10
2022-10-17T17:11:52.317Z,1.10
2022-10-17T17:14:19.903Z,1.20
2022-10-17T17:16:47.195Z,1.20
2022-10-17T17:19:16.998Z,1.00
2022-10-17T17:21:50.663Z,1.37
2022-10-17T17:24:18.687Z,1.10
2022-10-17T17:26:46.867Z,1.00
2022-10-17T17:29:14.225Z,1.10
2022-10-17T17:31:41.530Z,1.23
2022-10-17T17:34:09.655Z,1.70
2022-10-17T17:36:38.809Z,1.17
2022-10-17T17:39:08.714Z,1.20
2022-10-17T17:41:36.074Z,1.10
2022-10-17T17:44:04.163Z,1.23
2022-10-17T17:46:32.795Z,1.10
2022-10-17T17:49:00.670Z,1.10
2022-10-17T17:51:29.500Z,1.13
2022-10-17T17:53:57.396Z,1.17
2022-10-17T17:56:26.223Z,1.00
2022-10-17T17:58:55.123Z,1.10
2022-10-17T18:01:23.652Z,1.13
2022-10-17T18:03:52.199Z,1.20
2022-10-17T18:06:20.262Z,1.33
2022-10-17T18:08:48.515Z,1.00
2022-10-17T18:11:18.324Z,1.10
2022-10-17T18:13:48.588Z,1.40
2022-10-17T18:16:16.850Z,0.90
2022-10-17T18:18:45.361Z,1.00
2022-10-17T18:21:13.251Z,1.20
2022-10-17T18:23:41.196Z,1.10
2022-10-17T18:26:08.931Z,1.30
2022-10-17T18:28:37.150Z,1.00
2022-10-17T18:31:07.309Z,1.10
2022-10-17T18:33:35.102Z,1.20
2022-10-17T18:36:06.710Z,1.70
2022-10-17T18:38:34.309Z,1.10
2022-10-17T18:41:09.223Z,1.20
2022-10-17T18:43:37.217Z,1.33
2022-10-17T18:46:06.385Z,1.13
2022-10-17T18:48:36.091Z,1.30
2022-10-17T18:51:04.958Z,1.20
2022-10-17T18:53:32.545Z,1.10
2022-10-17T18:56:00.060Z,1.30
2022-10-17T18:58:27.476Z,1.20
2022-10-17T19:00:54.734Z,1.30
2022-10-17T19:03:22.005Z,1.17
2022-10-17T19:05:49.392Z,1.30
2022-10-17T19:08:16.669Z,1.20
2022-10-17T19:10:44.015Z,1.17
2022-10-17T19:13:11.749Z,1.47
2022-10-17T19:15:39.513Z,1.10
2022-10-17T19:18:06.895Z,1.13
2022-10-17T19:20:34.307Z,1.50
2022-10-17T19:23:01.711Z,1.40
2022-10-17T19:25:30.506Z,1.20
2022-10-17T19:27:58.334Z,1.17
2022-10-17T19:30:25.697Z,1.27
2022-10-17T19:32:53.069Z,1.03
2022-10-17T19:35:20.470Z,1.20
2022-10-17T19:37:47.746Z,1.30
2022-10-17T19:40:15.098Z,1.13
2022-10-17T19:42:42.455Z,1.13
2022-10-17T19:45:10.070Z,1.30
2022-10-17T19:47:38.468Z,1.50
2022-10-17T19:50:06.220Z,1.20
2022-10-17T19:52:33.878Z,1.13
2022-10-17T19:55:01.315Z,1.20
2022-10-17T19:57:28.741Z,1.10
2022-10-17T19:59:56.287Z,1.27
2022-10-17T20:02:23.586Z,1.27
2022-10-17T20:04:54.748Z,1.30
2022-10-17T20:07:27.357Z,1.10
2022-10-17T20:09:54.647Z,1.20
2022-10-17T20:12:21.992Z,1.10
2022-10-17T20:14:49.233Z,1.50
2022-10-17T20:17:16.518Z,1.27
2022-10-17T20:19:43.845Z,1.40
2022-10-17T20:22:11.116Z,1.13
2022-10-17T20:24:38.423Z,1.10
2022-10-17T20:27:05.948Z,1.30
2022-10-17T20:29:33.378Z,1.03
2022-10-17T20:32:00.935Z,1.30
2022-10-17T20:34:28.527Z,1.10
2022-10-17T20:36:55.787Z,1.37
2022-10-17T20:39:23.051Z,1.10
2022-10-17T20:41:50.342Z,1.23
2022-10-17T20:44:17.668Z,0.90
2022-10-17T20:47:00.325Z,1.13
2022-10-17T20:49:28.829Z,1.00
2022-10-17T20:51:56.256Z,1.03
2022-10-17T20:54:23.782Z,0.97
2022-10-17T20:56:51.111Z,1.60
2022-10-17T20:59:18.712Z,1.00
2022-10-17T21:01:46.577Z,1.30
2022-10-17T21:07:01.582Z,1.20
2022-10-17T21:09:29.055Z,0.97
2022-10-17T21:11:56.842Z,1.20
2022-10-17T21:14:25.183Z,1.27
2022-10-17T21:16:52.742Z,1.20
2022-10-17T21:19:21.608Z,1.10
2022-10-17T21:21:48.995Z,1.13
2022-10-17T21:24:18.073Z,1.17
2022-10-17T21:26:46.305Z,1.33
2022-10-17T21:29:14.235Z,1.47
2022-10-17T21:31:43.288Z,1.10
2022-10-17T21:34:15.251Z,1.20
2022-10-17T21:36:42.537Z,0.80
2022-10-17T21:39:10.970Z,1.00
2022-10-17T21:41:38.559Z,1.10
2022-10-17T21:44:07.593Z,1.20
2022-10-17T21:46:34.897Z,1.40
2022-10-17T21:49:02.628Z,1.10
2022-10-17T21:51:29.909Z,1.10
2022-10-17T21:53:57.928Z,1.40
2022-10-17T21:56:28.150Z,1.30
2022-10-17T21:58:55.939Z,1.27
2022-10-17T22:01:24.576Z,1.20
2022-10-17T22:03:53.050Z,1.23
2022-10-17T22:09:10.301Z,1.40
2022-10-17T22:11:37.643Z,1.23
2022-10-17T22:14:06.684Z,1.00
2022-10-17T22:16:34.560Z,1.27
2022-10-17T22:19:05.999Z,1.03
2022-10-17T22:21:35.046Z,1.20
2022-10-17T22:24:03.488Z,1.00
2022-10-17T22:26:31.371Z,1.27
2022-10-17T22:28:58.949Z,0.90
2022-10-17T22:31:26.638Z,1.10
2022-10-17T22:33:53.965Z,1.10
2022-10-17T22:36:21.268Z,1.00
2022-10-17T22:38:48.537Z,1.20
2022-10-17T22:41:15.944Z,1.10
2022-10-17T22:43:43.270Z,1.20
2022-10-17T22:46:12.908Z,1.50
2022-10-17T22:48:40.435Z,1.27
2022-10-17T22:51:07.788Z,1.30
2022-10-17T22:53:37.239Z,1.23
2022-10-17T22:56:06.590Z,1.10
2022-10-17T22:58:34.569Z,1.40
2022-10-17T23:01:02.363Z,1.47
2022-10-17T23:03:30.257Z,1.30
2022-10-17T23:05:57.964Z,1.10
2022-10-17T23:08:25.683Z,1.13
2022-10-17T23:10:53.238Z,1.30
2022-10-17T23:13:21.854Z,1.50
2022-10-17T23:15:53.163Z,1.10
2022-10-17T23:18:21.379Z,1.00
2022-10-17T23:20:49.075Z,1.10
2022-10-17T23:23:16.594Z,1.50
2022-10-17T23:25:44.205Z,1.30
2022-10-17T23:28:11.665Z,1.07
2022-10-17T23:30:39.535Z,1.40
2022-10-17T23:33:07.393Z,1.10
2022-10-17T23:35:34.986Z,1.20
2022-10-17T23:38:02.314Z,1.20
2022-10-17T23:40:29.771Z,1.23
2022-10-17T23:42:57.052Z,1.30
2022-10-17T23:45:24.440Z,1.30
2022-10-17T23:47:51.778Z,1.20
2022-10-17T23:50:19.192Z,1.30
2022-10-17T23:52:46.448Z,1.50
2022-10-17T23:55:13.703Z,1.30
2022-10-17T23:57:41.059Z,1.27
